sensor_id;sensor_type;location;lat;lon;timestamp;P1;durP1;ratioP1;P2;durP2;ratioP2
37407;SDS011;24866;50.248;8.252;2023-03-01T00:01:24;12.18;;;7.20;;
37407;SDS011;24866;50.248;8.252;2023-03-01T00:03:56;12.47;;;6.77;;
37407;SDS011;24866;50.248;8.252;2023-03-01T00:06:27;11.60;;;6.72;;
37407;SDS011;24866;50.248;8.252;2023-03-01T00:08:59;11.60;;;6.97;;
37407;SDS011;24866;50.248;8.252;2023-03-01T00:11:29;12.88;;;6.60;;
37407;SDS011;24866;50.248;8.252;2023-03-01T00:14:01;13.40;;;7.78;;
37407;SDS011;24866;50.248;8.252;2023-03-01T00:16:35;13.48;;;6.75;;
37407;SDS011;24866;50.248;8.252;2023-03-01T00:19:07;15.85;;;7.43;;
37407;SDS011;24866;50.248;8.252;2023-03-01T00:21:41;11.15;;;6.50;;
37407;SDS011;24866;50.248;8.252;2023-03-01T00:24:12;11.40;;;6.93;;
37407;SDS011;24866;50.248;8.252;2023-03-01T00:26:43;15.82;;;6.40;;
37407;SDS011;24866;50.248;8.252;2023-03-01T00:29:13;9.52;;;5.60;;
37407;SDS011;24866;50.248;8.252;2023-03-01T00:31:43;12.90;;;6.30;;
37407;SDS011;24866;50.248;8.252;2023-03-01T00:34:13;15.43;;;7.60;;
37407;SDS011;24866;50.248;8.252;2023-03-01T00:36:44;20.83;;;9.60;;
37407;SDS011;24866;50.248;8.252;2023-03-01T00:39:15;16.65;;;8.48;;
37407;SDS011;24866;50.248;8.252;2023-03-01T00:41:45;18.30;;;9.18;;
37407;SDS011;24866;50.248;8.252;2023-03-01T00:44:15;14.15;;;7.13;;
37407;SDS011;24866;50.248;8.252;2023-03-01T00:46:45;13.98;;;7.88;;
37407;SDS011;24866;50.248;8.252;2023-03-01T00:49:15;15.57;;;8.48;;
37407;SDS011;24866;50.248;8.252;2023-03-01T00:51:45;14.20;;;7.55;;
37407;SDS011;24866;50.248;8.252;2023-03-01T00:54:17;12.93;;;7.28;;
37407;SDS011;24866;50.248;8.252;2023-03-01T00:56:46;12.15;;;6.53;;
37407;SDS011;24866;50.248;8.252;2023-03-01T00:59:17;11.20;;;6.43;;
37407;SDS011;24866;50.248;8.252;2023-03-01T01:01:47;12.45;;;6.80;;
37407;SDS011;24866;50.248;8.252;2023-03-01T01:04:17;13.52;;;7.20;;
37407;SDS011;24866;50.248;8.252;2023-03-01T01:06:47;12.30;;;6.70;;
37407;SDS011;24866;50.248;8.252;2023-03-01T01:09:18;14.35;;;5.65;;
37407;SDS011;24866;50.248;8.252;2023-03-01T01:11:49;11.00;;;5.93;;
37407;SDS011;24866;50.248;8.252;2023-03-01T01:14:20;10.55;;;5.78;;
37407;SDS011;24866;50.248;8.252;2023-03-01T01:16:50;12.02;;;6.85;;
37407;SDS011;24866;50.248;8.252;2023-03-01T01:19:20;12.45;;;6.28;;
37407;SDS011;24866;50.248;8.252;2023-03-01T01:21:51;11.70;;;6.18;;
37407;SDS011;24866;50.248;8.252;2023-03-01T01:24:23;11.27;;;5.88;;
37407;SDS011;24866;50.248;8.252;2023-03-01T01:26:53;9.97;;;5.57;;
37407;SDS011;24866;50.248;8.252;2023-03-01T01:29:23;10.00;;;5.93;;
37407;SDS011;24866;50.248;8.252;2023-03-01T01:31:53;9.35;;;6.03;;
37407;SDS011;24866;50.248;8.252;2023-03-01T01:34:23;11.70;;;6.28;;
37407;SDS011;24866;50.248;8.252;2023-03-01T01:36:53;13.50;;;5.80;;
37407;SDS011;24866;50.248;8.252;2023-03-01T01:39:25;11.93;;;6.60;;
37407;SDS011;24866;50.248;8.252;2023-03-01T01:41:56;9.68;;;5.40;;
37407;SDS011;24866;50.248;8.252;2023-03-01T01:44:26;13.57;;;6.10;;
37407;SDS011;24866;50.248;8.252;2023-03-01T01:46:58;13.55;;;6.45;;
37407;SDS011;24866;50.248;8.252;2023-03-01T01:49:33;11.35;;;6.40;;
37407;SDS011;24866;50.248;8.252;2023-03-01T01:52:08;11.70;;;6.55;;
37407;SDS011;24866;50.248;8.252;2023-03-01T01:54:43;10.27;;;6.20;;
37407;SDS011;24866;50.248;8.252;2023-03-01T01:57:23;11.93;;;5.88;;
37407;SDS011;24866;50.248;8.252;2023-03-01T01:59:59;14.23;;;6.70;;
37407;SDS011;24866;50.248;8.252;2023-03-01T02:02:34;12.30;;;6.10;;
37407;SDS011;24866;50.248;8.252;2023-03-01T02:05:06;9.45;;;5.78;;
37407;SDS011;24866;50.248;8.252;2023-03-01T02:07:41;10.57;;;6.03;;
37407;SDS011;24866;50.248;8.252;2023-03-01T02:10:14;13.52;;;6.30;;
37407;SDS011;24866;50.248;8.252;2023-03-01T02:12:44;12.93;;;6.80;;
37407;SDS011;24866;50.248;8.252;2023-03-01T02:15:15;12.48;;;6.18;;
37407;SDS011;24866;50.248;8.252;2023-03-01T02:17:45;11.55;;;6.13;;
37407;SDS011;24866;50.248;8.252;2023-03-01T02:20:16;12.73;;;7.22;;
37407;SDS011;24866;50.248;8.252;2023-03-01T02:22:52;12.75;;;6.63;;
37407;SDS011;24866;50.248;8.252;2023-03-01T02:25:28;13.88;;;6.75;;
37407;SDS011;24866;50.248;8.252;2023-03-01T02:28:05;13.27;;;7.00;;
37407;SDS011;24866;50.248;8.252;2023-03-01T02:30:43;14.35;;;7.85;;
37407;SDS011;24866;50.248;8.252;2023-03-01T02:33:29;11.10;;;6.78;;
37407;SDS011;24866;50.248;8.252;2023-03-01T02:36:00;12.45;;;7.07;;
37407;SDS011;24866;50.248;8.252;2023-03-01T02:38:33;13.43;;;6.80;;
37407;SDS011;24866;50.248;8.252;2023-03-01T02:41:03;15.77;;;8.15;;
37407;SDS011;24866;50.248;8.252;2023-03-01T02:46:07;14.68;;;7.50;;
37407;SDS011;24866;50.248;8.252;2023-03-01T02:48:43;12.65;;;6.68;;
37407;SDS011;24866;50.248;8.252;2023-03-01T02:51:31;11.90;;;7.28;;
37407;SDS011;24866;50.248;8.252;2023-03-01T02:54:15;12.57;;;6.97;;
37407;SDS011;24866;50.248;8.252;2023-03-01T02:56:49;15.25;;;7.40;;
37407;SDS011;24866;50.248;8.252;2023-03-01T02:59:20;12.10;;;6.70;;
37407;SDS011;24866;50.248;8.252;2023-03-01T03:01:55;14.23;;;7.20;;
37407;SDS011;24866;50.248;8.252;2023-03-01T03:04:25;12.75;;;6.38;;
37407;SDS011;24866;50.248;8.252;2023-03-01T03:06:55;11.32;;;6.65;;
37407;SDS011;24866;50.248;8.252;2023-03-01T03:09:24;12.88;;;6.97;;
37407;SDS011;24866;50.248;8.252;2023-03-01T03:11:54;11.35;;;6.43;;
37407;SDS011;24866;50.248;8.252;2023-03-01T03:14:24;14.98;;;7.38;;
37407;SDS011;24866;50.248;8.252;2023-03-01T03:16:56;11.45;;;6.57;;
37407;SDS011;24866;50.248;8.252;2023-03-01T03:19:26;14.32;;;8.07;;
37407;SDS011;24866;50.248;8.252;2023-03-01T03:21:56;14.32;;;7.28;;
37407;SDS011;24866;50.248;8.252;2023-03-01T03:24:27;11.25;;;6.63;;
37407;SDS011;24866;50.248;8.252;2023-03-01T03:27:06;13.60;;;7.32;;
37407;SDS011;24866;50.248;8.252;2023-03-01T03:29:36;15.95;;;9.07;;
37407;SDS011;24866;50.248;8.252;2023-03-01T03:32:08;15.38;;;8.10;;
37407;SDS011;24866;50.248;8.252;2023-03-01T03:34:38;15.00;;;8.80;;
37407;SDS011;24866;50.248;8.252;2023-03-01T03:37:08;20.60;;;10.50;;
37407;SDS011;24866;50.248;8.252;2023-03-01T03:39:58;17.08;;;9.57;;
37407;SDS011;24866;50.248;8.252;2023-03-01T03:42:28;19.52;;;10.80;;
37407;SDS011;24866;50.248;8.252;2023-03-01T03:44:59;15.23;;;8.68;;
37407;SDS011;24866;50.248;8.252;2023-03-01T03:47:30;18.27;;;9.40;;
37407;SDS011;24866;50.248;8.252;2023-03-01T03:50:00;16.73;;;9.00;;
37407;SDS011;24866;50.248;8.252;2023-03-01T03:52:30;15.68;;;8.85;;
37407;SDS011;24866;50.248;8.252;2023-03-01T03:55:00;14.10;;;7.45;;
37407;SDS011;24866;50.248;8.252;2023-03-01T03:57:30;11.88;;;6.70;;
37407;SDS011;24866;50.248;8.252;2023-03-01T04:00:00;15.50;;;8.15;;
37407;SDS011;24866;50.248;8.252;2023-03-01T04:02:33;15.37;;;7.97;;
37407;SDS011;24866;50.248;8.252;2023-03-01T04:05:03;13.52;;;7.57;;
37407;SDS011;24866;50.248;8.252;2023-03-01T04:07:34;15.35;;;7.68;;
37407;SDS011;24866;50.248;8.252;2023-03-01T04:10:04;14.10;;;6.97;;
37407;SDS011;24866;50.248;8.252;2023-03-01T04:12:35;14.00;;;7.85;;
37407;SDS011;24866;50.248;8.252;2023-03-01T04:15:06;14.52;;;7.22;;
37407;SDS011;24866;50.248;8.252;2023-03-01T04:17:43;16.55;;;9.05;;
37407;SDS011;24866;50.248;8.252;2023-03-01T04:20:17;18.38;;;9.23;;
37407;SDS011;24866;50.248;8.252;2023-03-01T04:22:56;22.77;;;10.73;;
37407;SDS011;24866;50.248;8.252;2023-03-01T04:25:27;20.08;;;10.30;;
37407;SDS011;24866;50.248;8.252;2023-03-01T04:27:57;18.67;;;10.07;;
37407;SDS011;24866;50.248;8.252;2023-03-01T04:30:27;19.80;;;10.32;;
37407;SDS011;24866;50.248;8.252;2023-03-01T04:32:58;20.88;;;10.55;;
37407;SDS011;24866;50.248;8.252;2023-03-01T04:35:28;21.30;;;10.77;;
37407;SDS011;24866;50.248;8.252;2023-03-01T04:37:59;15.90;;;8.73;;
37407;SDS011;24866;50.248;8.252;2023-03-01T04:40:29;15.20;;;9.13;;
37407;SDS011;24866;50.248;8.252;2023-03-01T04:42:59;16.35;;;9.45;;
37407;SDS011;24866;50.248;8.252;2023-03-01T04:45:29;14.30;;;8.15;;
37407;SDS011;24866;50.248;8.252;2023-03-01T04:48:04;17.30;;;9.10;;
37407;SDS011;24866;50.248;8.252;2023-03-01T04:50:34;16.52;;;8.63;;
37407;SDS011;24866;50.248;8.252;2023-03-01T04:53:04;20.48;;;9.75;;
37407;SDS011;24866;50.248;8.252;2023-03-01T04:55:35;18.63;;;9.23;;
37407;SDS011;24866;50.248;8.252;2023-03-01T04:58:05;18.15;;;9.18;;
37407;SDS011;24866;50.248;8.252;2023-03-01T05:00:34;16.73;;;9.57;;
37407;SDS011;24866;50.248;8.252;2023-03-01T05:03:07;17.65;;;9.13;;
37407;SDS011;24866;50.248;8.252;2023-03-01T05:05:37;18.67;;;9.75;;
37407;SDS011;24866;50.248;8.252;2023-03-01T05:08:08;15.70;;;9.18;;
37407;SDS011;24866;50.248;8.252;2023-03-01T05:10:45;18.23;;;9.52;;
37407;SDS011;24866;50.248;8.252;2023-03-01T05:13:18;16.20;;;8.75;;
37407;SDS011;24866;50.248;8.252;2023-03-01T05:15:53;16.27;;;8.63;;
37407;SDS011;24866;50.248;8.252;2023-03-01T05:18:26;16.45;;;8.80;;
37407;SDS011;24866;50.248;8.252;2023-03-01T05:21:01;15.70;;;8.45;;
37407;SDS011;24866;50.248;8.252;2023-03-01T05:23:32;16.33;;;8.52;;
37407;SDS011;24866;50.248;8.252;2023-03-01T05:26:04;13.17;;;8.13;;
37407;SDS011;24866;50.248;8.252;2023-03-01T05:28:35;15.60;;;8.43;;
37407;SDS011;24866;50.248;8.252;2023-03-01T05:31:06;15.80;;;9.07;;
37407;SDS011;24866;50.248;8.252;2023-03-01T05:33:39;15.55;;;8.50;;
37407;SDS011;24866;50.248;8.252;2023-03-01T05:38:39;16.02;;;7.88;;
37407;SDS011;24866;50.248;8.252;2023-03-01T05:41:13;17.90;;;9.18;;
37407;SDS011;24866;50.248;8.252;2023-03-01T05:43:44;18.52;;;8.75;;
37407;SDS011;24866;50.248;8.252;2023-03-01T05:46:13;18.15;;;10.10;;
37407;SDS011;24866;50.248;8.252;2023-03-01T05:48:45;20.67;;;10.80;;
37407;SDS011;24866;50.248;8.252;2023-03-01T05:51:16;17.02;;;9.75;;
37407;SDS011;24866;50.248;8.252;2023-03-01T05:53:46;19.50;;;9.80;;
37407;SDS011;24866;50.248;8.252;2023-03-01T05:56:16;22.55;;;10.52;;
37407;SDS011;24866;50.248;8.252;2023-03-01T05:58:52;22.13;;;11.25;;
37407;SDS011;24866;50.248;8.252;2023-03-01T06:01:24;23.30;;;11.27;;
37407;SDS011;24866;50.248;8.252;2023-03-01T06:03:56;18.30;;;10.27;;
37407;SDS011;24866;50.248;8.252;2023-03-01T06:06:26;23.98;;;11.02;;
37407;SDS011;24866;50.248;8.252;2023-03-01T06:08:56;20.85;;;10.10;;
37407;SDS011;24866;50.248;8.252;2023-03-01T06:11:27;19.92;;;10.75;;
37407;SDS011;24866;50.248;8.252;2023-03-01T06:13:57;18.40;;;10.93;;
37407;SDS011;24866;50.248;8.252;2023-03-01T06:16:31;24.33;;;11.35;;
37407;SDS011;24866;50.248;8.252;2023-03-01T06:19:04;21.45;;;11.30;;
37407;SDS011;24866;50.248;8.252;2023-03-01T06:21:35;26.00;;;12.40;;
37407;SDS011;24866;50.248;8.252;2023-03-01T06:24:05;25.02;;;11.80;;
37407;SDS011;24866;50.248;8.252;2023-03-01T06:26:36;22.67;;;10.95;;
37407;SDS011;24866;50.248;8.252;2023-03-01T06:29:06;20.98;;;11.18;;
37407;SDS011;24866;50.248;8.252;2023-03-01T06:31:37;27.35;;;12.63;;
37407;SDS011;24866;50.248;8.252;2023-03-01T06:34:08;19.08;;;10.32;;
37407;SDS011;24866;50.248;8.252;2023-03-01T06:36:41;24.88;;;11.50;;
37407;SDS011;24866;50.248;8.252;2023-03-01T06:39:11;19.92;;;10.60;;
37407;SDS011;24866;50.248;8.252;2023-03-01T06:41:44;18.65;;;10.00;;
37407;SDS011;24866;50.248;8.252;2023-03-01T06:44:14;20.33;;;10.60;;
37407;SDS011;24866;50.248;8.252;2023-03-01T06:46:44;23.60;;;11.75;;
37407;SDS011;24866;50.248;8.252;2023-03-01T06:49:15;22.83;;;11.68;;
37407;SDS011;24866;50.248;8.252;2023-03-01T06:51:45;20.50;;;11.20;;
37407;SDS011;24866;50.248;8.252;2023-03-01T06:54:15;20.77;;;10.70;;
37407;SDS011;24866;50.248;8.252;2023-03-01T06:56:46;18.67;;;10.07;;
37407;SDS011;24866;50.248;8.252;2023-03-01T06:59:17;20.27;;;10.70;;
37407;SDS011;24866;50.248;8.252;2023-03-01T07:01:48;19.25;;;10.27;;
37407;SDS011;24866;50.248;8.252;2023-03-01T07:04:19;21.58;;;12.05;;
37407;SDS011;24866;50.248;8.252;2023-03-01T07:06:49;24.00;;;10.80;;
37407;SDS011;24866;50.248;8.252;2023-03-01T07:09:23;20.98;;;10.10;;
37407;SDS011;24866;50.248;8.252;2023-03-01T07:11:53;24.17;;;11.95;;
37407;SDS011;24866;50.248;8.252;2023-03-01T07:14:24;21.60;;;11.32;;
37407;SDS011;24866;50.248;8.252;2023-03-01T07:16:54;20.33;;;10.65;;
37407;SDS011;24866;50.248;8.252;2023-03-01T07:19:26;23.90;;;11.40;;
37407;SDS011;24866;50.248;8.252;2023-03-01T07:21:56;18.98;;;10.25;;
37407;SDS011;24866;50.248;8.252;2023-03-01T07:24:26;21.88;;;10.95;;
37407;SDS011;24866;50.248;8.252;2023-03-01T07:26:56;19.90;;;10.75;;
37407;SDS011;24866;50.248;8.252;2023-03-01T07:29:26;18.25;;;10.70;;
37407;SDS011;24866;50.248;8.252;2023-03-01T07:31:57;19.90;;;10.88;;
37407;SDS011;24866;50.248;8.252;2023-03-01T07:34:30;21.15;;;10.68;;
37407;SDS011;24866;50.248;8.252;2023-03-01T07:37:00;18.83;;;10.07;;
37407;SDS011;24866;50.248;8.252;2023-03-01T07:39:30;18.73;;;9.35;;
37407;SDS011;24866;50.248;8.252;2023-03-01T07:42:00;23.10;;;10.98;;
37407;SDS011;24866;50.248;8.252;2023-03-01T07:44:30;20.98;;;10.55;;
37407;SDS011;24866;50.248;8.252;2023-03-01T07:47:00;20.23;;;10.68;;
37407;SDS011;24866;50.248;8.252;2023-03-01T07:49:32;21.13;;;11.10;;
37407;SDS011;24866;50.248;8.252;2023-03-01T07:52:02;19.50;;;10.90;;
37407;SDS011;24866;50.248;8.252;2023-03-01T07:54:33;22.83;;;11.30;;
37407;SDS011;24866;50.248;8.252;2023-03-01T07:57:03;19.38;;;10.68;;
37407;SDS011;24866;50.248;8.252;2023-03-01T07:59:33;20.60;;;10.23;;
37407;SDS011;24866;50.248;8.252;2023-03-01T08:02:03;18.05;;;10.00;;
37407;SDS011;24866;50.248;8.252;2023-03-01T08:04:35;20.50;;;11.10;;
37407;SDS011;24866;50.248;8.252;2023-03-01T08:07:05;22.23;;;11.70;;
37407;SDS011;24866;50.248;8.252;2023-03-01T08:09:35;19.60;;;10.70;;
37407;SDS011;24866;50.248;8.252;2023-03-01T08:12:06;21.52;;;11.00;;
37407;SDS011;24866;50.248;8.252;2023-03-01T08:14:36;20.63;;;11.48;;
37407;SDS011;24866;50.248;8.252;2023-03-01T08:17:06;18.25;;;10.93;;
37407;SDS011;24866;50.248;8.252;2023-03-01T08:19:37;19.98;;;9.15;;
37407;SDS011;24866;50.248;8.252;2023-03-01T08:22:07;20.35;;;11.60;;
37407;SDS011;24866;50.248;8.252;2023-03-01T08:24:37;23.17;;;11.02;;
37407;SDS011;24866;50.248;8.252;2023-03-01T08:27:07;19.05;;;11.52;;
37407;SDS011;24866;50.248;8.252;2023-03-01T08:29:37;20.10;;;11.30;;
37407;SDS011;24866;50.248;8.252;2023-03-01T08:32:07;18.52;;;11.07;;
37407;SDS011;24866;50.248;8.252;2023-03-01T08:34:39;20.40;;;11.65;;
37407;SDS011;24866;50.248;8.252;2023-03-01T08:37:09;20.33;;;11.18;;
37407;SDS011;24866;50.248;8.252;2023-03-01T08:39:39;18.13;;;10.82;;
37407;SDS011;24866;50.248;8.252;2023-03-01T08:42:09;17.90;;;10.45;;
37407;SDS011;24866;50.248;8.252;2023-03-01T08:44:39;21.48;;;10.27;;
37407;SDS011;24866;50.248;8.252;2023-03-01T08:47:09;17.45;;;10.38;;
37407;SDS011;24866;50.248;8.252;2023-03-01T08:49:40;19.42;;;11.50;;
37407;SDS011;24866;50.248;8.252;2023-03-01T08:52:10;15.85;;;9.90;;
37407;SDS011;24866;50.248;8.252;2023-03-01T08:54:41;18.80;;;10.25;;
37407;SDS011;24866;50.248;8.252;2023-03-01T08:57:11;19.67;;;9.55;;
37407;SDS011;24866;50.248;8.252;2023-03-01T08:59:41;18.73;;;10.15;;
37407;SDS011;24866;50.248;8.252;2023-03-01T09:02:11;16.40;;;10.32;;
37407;SDS011;24866;50.248;8.252;2023-03-01T09:04:46;19.13;;;10.38;;
37407;SDS011;24866;50.248;8.252;2023-03-01T09:07:16;17.48;;;10.35;;
37407;SDS011;24866;50.248;8.252;2023-03-01T09:09:47;18.13;;;11.38;;
37407;SDS011;24866;50.248;8.252;2023-03-01T09:12:17;20.20;;;11.80;;
37407;SDS011;24866;50.248;8.252;2023-03-01T09:14:47;17.65;;;10.20;;
37407;SDS011;24866;50.248;8.252;2023-03-01T09:17:17;17.25;;;10.27;;
37407;SDS011;24866;50.248;8.252;2023-03-01T09:22:20;15.35;;;9.35;;
37407;SDS011;24866;50.248;8.252;2023-03-01T09:24:50;16.80;;;9.95;;
37407;SDS011;24866;50.248;8.252;2023-03-01T09:27:20;19.02;;;11.27;;
37407;SDS011;24866;50.248;8.252;2023-03-01T09:29:50;18.15;;;11.00;;
37407;SDS011;24866;50.248;8.252;2023-03-01T09:32:21;25.30;;;14.55;;
37407;SDS011;24866;50.248;8.252;2023-03-01T09:34:53;17.58;;;11.02;;
37407;SDS011;24866;50.248;8.252;2023-03-01T09:37:35;23.65;;;14.15;;
37407;SDS011;24866;50.248;8.252;2023-03-01T09:40:09;31.33;;;16.25;;
37407;SDS011;24866;50.248;8.252;2023-03-01T09:42:49;28.02;;;16.77;;
37407;SDS011;24866;50.248;8.252;2023-03-01T09:45:27;17.88;;;10.18;;
37407;SDS011;24866;50.248;8.252;2023-03-01T09:48:02;30.20;;;17.73;;
37407;SDS011;24866;50.248;8.252;2023-03-01T09:50:39;34.03;;;19.70;;
37407;SDS011;24866;50.248;8.252;2023-03-01T09:53:13;17.25;;;10.13;;
37407;SDS011;24866;50.248;8.252;2023-03-01T09:55:45;17.83;;;10.50;;
37407;SDS011;24866;50.248;8.252;2023-03-01T09:58:35;16.58;;;10.05;;
37407;SDS011;24866;50.248;8.252;2023-03-01T10:01:17;17.63;;;10.27;;
37407;SDS011;24866;50.248;8.252;2023-03-01T10:07:01;29.75;;;18.90;;
37407;SDS011;24866;50.248;8.252;2023-03-01T10:09:41;17.80;;;10.60;;
37407;SDS011;24866;50.248;8.252;2023-03-01T10:12:13;17.43;;;11.57;;
37407;SDS011;24866;50.248;8.252;2023-03-01T10:14:48;18.17;;;11.85;;
37407;SDS011;24866;50.248;8.252;2023-03-01T10:17:25;17.25;;;11.23;;
37407;SDS011;24866;50.248;8.252;2023-03-01T10:20:10;45.42;;;24.23;;
37407;SDS011;24866;50.248;8.252;2023-03-01T10:22:48;16.00;;;10.13;;
37407;SDS011;24866;50.248;8.252;2023-03-01T10:25:23;22.55;;;10.65;;
37407;SDS011;24866;50.248;8.252;2023-03-01T10:28:06;19.10;;;10.73;;
37407;SDS011;24866;50.248;8.252;2023-03-01T10:30:45;20.05;;;10.75;;
37407;SDS011;24866;50.248;8.252;2023-03-01T10:33:16;20.10;;;11.45;;
37407;SDS011;24866;50.248;8.252;2023-03-01T10:35:49;16.83;;;10.35;;
37407;SDS011;24866;50.248;8.252;2023-03-01T10:38:22;17.90;;;10.73;;
37407;SDS011;24866;50.248;8.252;2023-03-01T10:40:55;19.30;;;11.82;;
37407;SDS011;24866;50.248;8.252;2023-03-01T10:43:28;13.02;;;6.78;;
37407;SDS011;24866;50.248;8.252;2023-03-01T10:46:22;16.70;;;9.40;;
37407;SDS011;24866;50.248;8.252;2023-03-01T10:51:44;16.88;;;10.07;;
37407;SDS011;24866;50.248;8.252;2023-03-01T10:54:17;17.67;;;11.33;;
37407;SDS011;24866;50.248;8.252;2023-03-01T10:56:58;16.33;;;9.88;;
37407;SDS011;24866;50.248;8.252;2023-03-01T10:59:30;16.50;;;10.35;;
37407;SDS011;24866;50.248;8.252;2023-03-01T11:02:04;15.98;;;10.13;;
37407;SDS011;24866;50.248;8.252;2023-03-01T11:04:56;15.35;;;9.65;;
37407;SDS011;24866;50.248;8.252;2023-03-01T11:07:27;13.95;;;9.35;;
37407;SDS011;24866;50.248;8.252;2023-03-01T11:09:59;15.35;;;9.10;;
37407;SDS011;24866;50.248;8.252;2023-03-01T11:12:40;17.33;;;9.00;;
37407;SDS011;24866;50.248;8.252;2023-03-01T11:15:15;14.55;;;8.82;;
37407;SDS011;24866;50.248;8.252;2023-03-01T11:17:50;16.92;;;9.70;;
37407;SDS011;24866;50.248;8.252;2023-03-01T11:20:25;13.35;;;8.65;;
37407;SDS011;24866;50.248;8.252;2023-03-01T11:22:59;17.00;;;10.40;;
37407;SDS011;24866;50.248;8.252;2023-03-01T11:25:35;19.08;;;8.82;;
37407;SDS011;24866;50.248;8.252;2023-03-01T11:28:07;15.73;;;10.15;;
37407;SDS011;24866;50.248;8.252;2023-03-01T11:30:45;14.48;;;8.70;;
37407;SDS011;24866;50.248;8.252;2023-03-01T11:33:24;24.17;;;14.30;;
37407;SDS011;24866;50.248;8.252;2023-03-01T11:36:07;15.98;;;10.80;;
37407;SDS011;24866;50.248;8.252;2023-03-01T11:38:53;15.85;;;9.05;;
37407;SDS011;24866;50.248;8.252;2023-03-01T11:41:28;14.07;;;8.32;;
37407;SDS011;24866;50.248;8.252;2023-03-01T11:44:01;14.43;;;9.07;;
37407;SDS011;24866;50.248;8.252;2023-03-01T11:46:45;13.50;;;9.13;;
37407;SDS011;24866;50.248;8.252;2023-03-01T11:49:33;14.02;;;8.63;;
37407;SDS011;24866;50.248;8.252;2023-03-01T11:52:35;15.30;;;10.00;;
37407;SDS011;24866;50.248;8.252;2023-03-01T11:55:19;13.55;;;8.27;;
37407;SDS011;24866;50.248;8.252;2023-03-01T11:58:05;11.68;;;8.60;;
37407;SDS011;24866;50.248;8.252;2023-03-01T12:00:49;12.70;;;7.18;;
37407;SDS011;24866;50.248;8.252;2023-03-01T12:06:41;11.50;;;8.18;;
37407;SDS011;24866;50.248;8.252;2023-03-01T12:09:23;10.77;;;7.45;;
37407;SDS011;24866;50.248;8.252;2023-03-01T12:12:04;16.38;;;8.30;;
37407;SDS011;24866;50.248;8.252;2023-03-01T12:14:54;11.68;;;8.02;;
37407;SDS011;24866;50.248;8.252;2023-03-01T12:17:41;12.73;;;6.90;;
37407;SDS011;24866;50.248;8.252;2023-03-01T12:20:30;10.32;;;6.82;;
37407;SDS011;24866;50.248;8.252;2023-03-01T12:23:16;10.98;;;7.28;;
37407;SDS011;24866;50.248;8.252;2023-03-01T12:26:01;12.43;;;7.30;;
37407;SDS011;24866;50.248;8.252;2023-03-01T12:28:45;12.70;;;7.82;;
37407;SDS011;24866;50.248;8.252;2023-03-01T12:34:38;10.95;;;7.28;;
37407;SDS011;24866;50.248;8.252;2023-03-01T12:37:25;11.55;;;7.80;;
37407;SDS011;24866;50.248;8.252;2023-03-01T12:40:12;13.30;;;8.23;;
37407;SDS011;24866;50.248;8.252;2023-03-01T12:42:55;13.98;;;8.52;;
37407;SDS011;24866;50.248;8.252;2023-03-01T12:48:38;11.63;;;7.00;;
37407;SDS011;24866;50.248;8.252;2023-03-01T12:51:14;11.10;;;6.95;;
37407;SDS011;24866;50.248;8.252;2023-03-01T12:53:49;12.25;;;8.02;;
37407;SDS011;24866;50.248;8.252;2023-03-01T12:56:21;12.27;;;7.95;;
37407;SDS011;24866;50.248;8.252;2023-03-01T12:58:55;12.60;;;7.28;;
37407;SDS011;24866;50.248;8.252;2023-03-01T13:01:40;13.55;;;7.25;;
37407;SDS011;24866;50.248;8.252;2023-03-01T13:04:21;13.20;;;7.40;;
37407;SDS011;24866;50.248;8.252;2023-03-01T13:07:02;11.88;;;7.90;;
37407;SDS011;24866;50.248;8.252;2023-03-01T13:15:29;12.10;;;7.35;;
37407;SDS011;24866;50.248;8.252;2023-03-01T13:18:00;10.25;;;6.70;;
37407;SDS011;24866;50.248;8.252;2023-03-01T13:20:45;12.32;;;8.10;;
37407;SDS011;24866;50.248;8.252;2023-03-01T13:23:25;11.30;;;6.82;;
37407;SDS011;24866;50.248;8.252;2023-03-01T13:26:06;12.55;;;7.07;;
37407;SDS011;24866;50.248;8.252;2023-03-01T13:28:41;13.02;;;6.32;;
37407;SDS011;24866;50.248;8.252;2023-03-01T13:34:45;15.38;;;7.47;;
37407;SDS011;24866;50.248;8.252;2023-03-01T13:37:24;13.82;;;7.00;;
37407;SDS011;24866;50.248;8.252;2023-03-01T13:39:59;11.50;;;7.10;;
37407;SDS011;24866;50.248;8.252;2023-03-01T13:42:35;10.25;;;6.35;;
37407;SDS011;24866;50.248;8.252;2023-03-01T13:45:17;10.18;;;6.85;;
37407;SDS011;24866;50.248;8.252;2023-03-01T13:47:52;11.75;;;6.68;;
37407;SDS011;24866;50.248;8.252;2023-03-01T13:50:27;12.73;;;7.65;;
37407;SDS011;24866;50.248;8.252;2023-03-01T13:53:01;11.55;;;7.20;;
37407;SDS011;24866;50.248;8.252;2023-03-01T13:55:40;15.05;;;8.07;;
37407;SDS011;24866;50.248;8.252;2023-03-01T13:58:19;14.00;;;7.28;;
37407;SDS011;24866;50.248;8.252;2023-03-01T14:00:57;11.27;;;6.93;;
37407;SDS011;24866;50.248;8.252;2023-03-01T14:03:29;15.65;;;7.50;;
37407;SDS011;24866;50.248;8.252;2023-03-01T14:06:04;13.65;;;8.07;;
37407;SDS011;24866;50.248;8.252;2023-03-01T14:08:36;11.13;;;6.65;;
37407;SDS011;24866;50.248;8.252;2023-03-01T14:11:13;10.77;;;6.88;;
37407;SDS011;24866;50.248;8.252;2023-03-01T14:17:09;15.15;;;7.53;;
37407;SDS011;24866;50.248;8.252;2023-03-01T14:20:02;13.00;;;7.45;;
37407;SDS011;24866;50.248;8.252;2023-03-01T14:22:44;10.68;;;5.72;;
37407;SDS011;24866;50.248;8.252;2023-03-01T14:25:18;12.23;;;7.32;;
37407;SDS011;24866;50.248;8.252;2023-03-01T14:27:59;12.07;;;8.10;;
37407;SDS011;24866;50.248;8.252;2023-03-01T14:30:36;12.02;;;7.53;;
37407;SDS011;24866;50.248;8.252;2023-03-01T14:33:18;11.77;;;7.50;;
37407;SDS011;24866;50.248;8.252;2023-03-01T14:35:54;14.15;;;7.07;;
37407;SDS011;24866;50.248;8.252;2023-03-01T14:38:33;11.45;;;6.82;;
37407;SDS011;24866;50.248;8.252;2023-03-01T14:41:05;13.90;;;6.65;;
37407;SDS011;24866;50.248;8.252;2023-03-01T14:43:41;13.02;;;7.22;;
37407;SDS011;24866;50.248;8.252;2023-03-01T14:46:19;12.80;;;7.63;;
37407;SDS011;24866;50.248;8.252;2023-03-01T14:48:50;11.73;;;7.13;;
37407;SDS011;24866;50.248;8.252;2023-03-01T14:51:22;12.53;;;7.40;;
37407;SDS011;24866;50.248;8.252;2023-03-01T14:53:52;15.25;;;7.63;;
37407;SDS011;24866;50.248;8.252;2023-03-01T14:56:23;13.18;;;6.68;;
37407;SDS011;24866;50.248;8.252;2023-03-01T14:58:54;12.25;;;7.60;;
37407;SDS011;24866;50.248;8.252;2023-03-01T15:01:27;10.52;;;6.90;;
37407;SDS011;24866;50.248;8.252;2023-03-01T15:04:00;11.65;;;7.63;;
37407;SDS011;24866;50.248;8.252;2023-03-01T15:06:31;12.88;;;7.45;;
37407;SDS011;24866;50.248;8.252;2023-03-01T15:09:02;12.27;;;7.13;;
37407;SDS011;24866;50.248;8.252;2023-03-01T15:11:33;13.60;;;7.18;;
37407;SDS011;24866;50.248;8.252;2023-03-01T15:17:19;10.80;;;5.47;;
37407;SDS011;24866;50.248;8.252;2023-03-01T15:19:53;14.82;;;7.45;;
37407;SDS011;24866;50.248;8.252;2023-03-01T15:22:24;11.70;;;5.88;;
37407;SDS011;24866;50.248;8.252;2023-03-01T15:24:56;11.77;;;5.68;;
37407;SDS011;24866;50.248;8.252;2023-03-01T15:27:26;10.93;;;5.70;;
37407;SDS011;24866;50.248;8.252;2023-03-01T15:29:58;13.55;;;7.45;;
37407;SDS011;24866;50.248;8.252;2023-03-01T15:32:31;12.02;;;7.32;;
37407;SDS011;24866;50.248;8.252;2023-03-01T15:38:22;12.55;;;7.00;;
37407;SDS011;24866;50.248;8.252;2023-03-01T15:40:55;11.43;;;6.18;;
37407;SDS011;24866;50.248;8.252;2023-03-01T15:43:38;10.57;;;6.78;;
37407;SDS011;24866;50.248;8.252;2023-03-01T15:46:18;13.07;;;7.05;;
37407;SDS011;24866;50.248;8.252;2023-03-01T15:48:54;10.98;;;6.30;;
37407;SDS011;24866;50.248;8.252;2023-03-01T15:51:30;10.57;;;6.53;;